WEATHER DATA

YESTERDAY
Time Temp. Dewp. Hum. Bar.
00:02 0.6 -1 88 1010.7
00:22 0.4 -1.3 87 1010.9
00:33 0.2 -1.4 88 1010.8
00:42 0.1 -1.5 88 1011
00:52 0.1 -1.3 89 1010.9
01:02 0 -1.4 89 1010.8
01:13 0 -1.4 89 1010.9
01:23 0 -1.4 89 1011
01:32 0 -1.4 89 1010.8
01:43 0.1 -1.2 90 1010.9
01:53 0.2 -1.1 90 1010.8
02:03 0.3 -1 90 1010.7
02:13 0.3 -1 90 1010.5
02:23 0.3 -1 90 1010.7
02:33 0.3 -1 90 1010.6
02:43 0.2 -1.1 90 1010.6
02:54 0.2 -1.1 90 1010.4
03:03 0.1 -1.2 90 1010.4
03:13 0.1 -1.2 90 1010.4
03:17 0.1 -1.2 90 1010.4
03:28 0.1 -1.2 90 1010
03:38 0 -1.3 90 1009.9
03:48 0 -1.3 90 1009.8
03:58 0 -1.3 90 1009.7
04:08 0.1 -1.1 91 1009.7
04:18 0.1 -1.1 91 1009.1
04:28 0.1 -1.1 91 1009.3
04:38 0.3 -0.9 91 1009.1
04:48 0.4 -0.8 91 1008.9
04:58 0.5 -0.7 91 1008.7
05:09 1 0 93 1009
05:19 1.3 0.1 92 1008.5
05:28 1.3 0.1 92 1008.7
05:38 1.3 0.1 92 1008.4
05:49 1.2 -0.1 91 1008.4
05:59 1.1 -0.2 91 1008.4
06:08 1.2 0 92 1008.3
06:19 1.2 0 92 1008.4
06:28 1.3 0.1 92 1008.3
06:39 1.3 0.1 92 1008.4
06:49 1.4 0.2 92 1008.5
06:59 1.4 0.2 92 1008.4
07:09 1.4 0.2 92 1008.3
07:19 1.5 0.3 92 1008.5
07:30 1.6 0.4 92 1008.3
07:40 1.7 0.5 92 1008.2
07:49 1.8 0.6 92 1008.3
07:59 1.8 0.6 92 1008.4
08:10 1.9 0.7 92 1008.3
08:20 1.9 0.7 92 1008.3
08:29 2 0.8 92 1008.1
08:40 2.1 1.1 93 1008.1
09:00 2.2 1.2 93 1008
09:10 2.3 1.3 93 1008.1
09:20 2.4 1.4 93 1008
09:30 2.5 1.5 93 1008.2
09:40 2.7 1.7 93 1008.4
09:52 2.7 1.7 93 1008.6
10:02 2.7 1.7 93 1008.7
10:12 2.8 1.8 93 1008.7
10:22 3.7 3 95 1008.8
10:32 4.9 3.6 91 1009
10:43 6 4.3 89 1009.2
10:53 6.4 4.2 86 1009.1
11:02 6.6 3.9 83 1009.3
11:13 6.8 3.8 81 1009.1
11:23 6.9 3.7 80 1009.5
11:33 7.1 3.9 80 1009.3
11:42 7 3.8 80 1009.5
11:53 7.1 4.1 81 1009.2
12:03 7.1 3.9 80 1009.5
12:13 7.1 3.7 79 1009.1
12:23 7.2 3.8 79 1009
12:33 7.2 3.8 79 1009
12:53 7.3 3.4 76 1009.2
13:04 7.3 3 74 1009.1
13:14 7.3 3.2 75 1009.2
13:23 7.3 3.2 75 1008.9
13:34 7.3 3 74 1009.1
13:44 7.4 3.1 74 1009.1
13:54 7.3 3.2 75 1009.2
14:03 7.3 3 74 1009.3
14:14 7.1 3 75 1009.2
14:24 7.1 3 75 1009.2
14:44 7 2.5 73 1009.2
14:54 7 2.3 72 1009.3
15:14 7.1 2.2 71 1009.7
15:25 6.7 3.5 80 1009.7
15:34 6.5 3.8 83 1009.9
15:44 6.5 3.8 83 1009.9
15:55 6.7 3.3 79 1009.9
16:05 6.8 2.7 75 1010
16:15 6.2 3.5 83 1010.6
16:24 5 3.2 88 1010.7
16:35 4.6 3.6 93 1010.8
16:45 4.4 3.4 93 1011.1
16:55 4.3 4 98 1010.8
17:05 4.3 4 98 1010.9
17:15 4.3 4 98 1011.3
17:25 4.3 3.4 94 1011.9
17:35 4.1 3.1 93 1011.7
17:46 4.3 3.7 96 1011.7
17:55 4.2 3.8 97 1011.6
18:05 4.2 3.8 97 1011.5
18:15 4.2 3.8 97 1011.6
18:26 4.3 3.9 97 1011.8
18:36 4.4 4.1 98 1012
18:45 4.4 4.1 98 1012.2
18:56 4.5 4.2 98 1012.2
19:08 4.5 4.2 98 1012.5
19:17 4.5 4.2 98 1012.6
19:27 4.4 4.1 98 1012.6
19:38 4.5 4.2 98 1012.8
19:48 4.5 4.1 97 1012.9
19:57 4.5 4.2 98 1013.1
20:07 4.5 4.1 97 1013.1
20:18 4.4 4.1 98 1013.2
20:28 4.3 3.9 97 1013.3
20:38 4.2 3.8 97 1013.3
20:47 4.2 3.8 97 1013.3
20:58 4.1 3.5 96 1013.4
21:08 4 3.7 98 1013.4
21:18 4 3.3 95 1013.6
21:29 4.1 3.4 95 1013.7
21:38 4.2 3 92 1013.8
21:48 4.2 3.3 94 1013.6
21:59 4.2 2.6 89 1013.6
22:09 4.2 3.5 95 1013.7
22:18 4.1 3.2 94 1013.7
22:28 4.1 2.3 88 1013.5
22:39 4.3 2 85 1013.6
22:49 4.3 2.5 88 1013.5
22:59 4.3 3 91 1013.6
23:09 4.2 3.5 95 1013.5
23:19 4.3 1.8 84 1014
23:28 2.9 1.7 92 1014.8
23:38 1.9 1 94 1015.3
23:48 1.5 1.1 97 1015

DAY STATISTIC

2019-01-17
TEMPERATURE
AVERAGE
3.4
HIGH
7.4
13:44
LOW
0.0
01:02
PRESSURE
AVERAGE
1010.5
HIGH
1015.3
23:38
LOW
1008.0
09:00
DEWPOINT
AVERAGE
1.8
HIGH
4.3
10:43
LOW
-1.5
00:42
HUMIDITY
AVERAGE
89
HIGH
98
16:55
LOW
71
15:14
TEMPERATURE (°C)
LOW
0.0
HIGH
7.4
AVERAGE
3.4
PRESSURE (hpa)
LOW
1008.0
HIGH
1015.3
AVERAGE
1010.5
DEVICE